Главная страница
METAR-TAF:

METAR-TAF

Аэропорты :

Роскилле, Дания

широта: 55-35N, долгота: 012-08E, высота над уровнем моря: 44 м

Текущие метеонаблюдения

Эта сводка был подготовлена 24 минут назад, в 22:20 UTC
Ветер 5 Узел от южный
Температура 11°C
Влажность 82%
Давление 1014 hPa
Видимость 10 км и более

METAR: EKRK 232220Z AUTO 19005KT 9999 NCD 11/08 Q1014

Время: 00:44 (22:44 UTC)

Прогноз

Эта сводка был подготовлена 2 часа и 32 минут назад, в 20:12 UTC
Прогноз действительный с 23-го 21 UTC до 24-го 06 UTC
Ветер 8 Узел от юго-западный
Видимость 10 км и более
Отдельные облака на высоте 3000 фута

TAF: EKRK 232012Z 2321/2406 22008KT 9999 SCT030

Метеонаблюдения и прогнозы для более 4000 аэропортов (сводки METAR и TAF).

Имеющиеся станции представлены на карте желтыми и красными точками.

Чтобы увидеть название станции, наведите на нее мышь.

Затем щелкните, чтобы увидеть метеонаблюдения и метеопрогнозы.

Управление картой: чтобы увеличить масштаб, щелкните зеленые кнопки с черным крестиком; чтобы уменьшить масштаб, щелкните зеленую кнопку с тире; для просмотра соседних карт щелкайте зеленые стрелки.


METAR-TAF: